San Francisco International Airport
KSFO : now visible

Airfield :











YOU CAN JOIN US ON...

 
LOGIN :

Register | Disclaimer

   EN    FR    IT 

 









Legend :    VFR   Marginal VFR   IFR   Intensive IFR   Very Intensive IFR
Visi :
Ceiling :
>= 8 km
>= 3000ft
5 to 8 km
1000 to 3000 ft
1500m to 5 km
500 to 1000 ft
800 to 1500m
200 to 500 ft
< 800m
< 200 ft
Symbols :   Thunderstorms  Fog  Heavy snow  Heavy precipitations  Wind > 20 kt






- Airport Elevation : 13 ft
- IATA code : SFO


KSFO - San Francisco International

CURRENT METAR :
  • 080706Z 21007KT 4SM -RA BR SCT017 SCT023 OVC029 14/12 A2995 RMK AO2 P0000 T01440122

EXPIRED METARs :
  • 080656Z 22012KT 3SM -RA BR FEW017 BKN030 OVC043 14/12 A2995 RMK AO2 RAE01B38 SLP142 P0003 T01440122
  • 080623Z 20008G18KT 8SM SCT022 BKN031 OVC048 16/12 A2995 RMK AO2 RAE01 P0000 T01560117
  • 080556Z 21006KT 7SM -RA SCT017 BKN029 OVC070 14/12 A2995 RMK AO2 RAE0457B34 SLP141 P0001 60011 T01440122 10172 20144 53006
  • 080456Z 20010G18KT 10SM -RA FEW006 BKN029 BKN036 16/12 A2994 RMK AO2 RAB06E26B53 SLP138 P0000 T01560122

TAF KSFO
Valid from the 08 at 06:00 until the 09 at 12:00 UTC


080539Z 0806/0912 21010KT P6SM -SHRA BKN020 BKN030 OVC050
FM080900 24010KT P6SM VCSH BKN025 OVC040
FM081900 29012KT P6SM VCSH BKN030 OVC040
FM090400 29010KT P6SM BKN030
FM090700 29005KT P6SM BKN030



MET'MAP, your aeronautical weather chart ! - Copyright ORBIFLY December 2007 - Disclaimer

ORBIFLY MET'MAP TEAM :

Programming & Development : Alexandra Zaïnal
Concept & original design : Baudouin d'Aumeries
Assistance for programming : Marc-Olivier Méhu
Technical & hardware support : Manuel Goepfert

Contact : metmap@orbifly.com




SOURCES & CREDITS :

   NOAA       Earth
Advisory